sensor_id;sensor_type;location;lat;lon;timestamp;P1;P2;P0
49343;PMS5003;35210;41.606;-87.602;2023-01-25T00:00:52;25.40;18.40;12.00
49343;PMS5003;35210;41.606;-87.602;2023-01-25T00:03:20;30.40;22.80;16.40
49343;PMS5003;35210;41.606;-87.602;2023-01-25T00:05:56;29.80;25.20;13.00
49343;PMS5003;35210;41.606;-87.602;2023-01-25T00:08:27;28.60;21.80;13.80
49343;PMS5003;35210;41.606;-87.602;2023-01-25T00:10:55;21.00;18.20;12.00
49343;PMS5003;35210;41.606;-87.602;2023-01-25T00:13:24;30.00;21.00;12.00
49343;PMS5003;35210;41.606;-87.602;2023-01-25T00:15:52;43.80;33.60;18.60
49343;PMS5003;35210;41.606;-87.602;2023-01-25T00:18:20;32.20;28.20;16.00
49343;PMS5003;35210;41.606;-87.602;2023-01-25T00:20:48;32.40;25.80;13.60
49343;PMS5003;35210;41.606;-87.602;2023-01-25T00:23:16;24.60;21.60;11.20
49343;PMS5003;35210;41.606;-87.602;2023-01-25T00:25:48;31.60;24.00;12.60
49343;PMS5003;35210;41.606;-87.602;2023-01-25T00:28:22;26.60;22.60;13.00
49343;PMS5003;35210;41.606;-87.602;2023-01-25T00:30:52;29.80;27.40;15.60
49343;PMS5003;35210;41.606;-87.602;2023-01-25T00:33:37;33.80;28.20;13.60
49343;PMS5003;35210;41.606;-87.602;2023-01-25T00:36:26;20.40;17.60;8.20
49343;PMS5003;35210;41.606;-87.602;2023-01-25T00:39:09;32.80;28.20;14.00
49343;PMS5003;35210;41.606;-87.602;2023-01-25T00:41:41;33.80;29.40;17.20
49343;PMS5003;35210;41.606;-87.602;2023-01-25T00:44:10;36.40;35.00;20.60
49343;PMS5003;35210;41.606;-87.602;2023-01-25T00:46:38;47.60;41.20;22.20
49343;PMS5003;35210;41.606;-87.602;2023-01-25T00:49:07;22.40;18.60;10.00
49343;PMS5003;35210;41.606;-87.602;2023-01-25T00:51:45;36.60;28.40;14.00
49343;PMS5003;35210;41.606;-87.602;2023-01-25T00:54:14;30.20;26.20;14.00
49343;PMS5003;35210;41.606;-87.602;2023-01-25T00:56:44;31.00;27.00;15.20
49343;PMS5003;35210;41.606;-87.602;2023-01-25T00:59:13;24.60;22.20;12.80
49343;PMS5003;35210;41.606;-87.602;2023-01-25T01:01:41;25.00;20.60;13.40
49343;PMS5003;35210;41.606;-87.602;2023-01-25T01:04:09;25.80;23.40;13.60
49343;PMS5003;35210;41.606;-87.602;2023-01-25T01:06:38;20.60;20.60;13.00
49343;PMS5003;35210;41.606;-87.602;2023-01-25T01:09:11;46.40;39.80;20.20
49343;PMS5003;35210;41.606;-87.602;2023-01-25T01:11:40;116.25;97.50;49.00
49343;PMS5003;35210;41.606;-87.602;2023-01-25T01:14:10;61.80;45.40;25.80
49343;PMS5003;35210;41.606;-87.602;2023-01-25T01:16:38;24.20;22.20;12.60
49343;PMS5003;35210;41.606;-87.602;2023-01-25T01:19:07;17.80;14.80;11.00
49343;PMS5003;35210;41.606;-87.602;2023-01-25T01:21:35;35.60;32.60;18.60
49343;PMS5003;35210;41.606;-87.602;2023-01-25T01:24:04;32.60;27.80;15.80
49343;PMS5003;35210;41.606;-87.602;2023-01-25T01:26:32;46.40;40.00;23.80
49343;PMS5003;35210;41.606;-87.602;2023-01-25T01:29:01;31.20;27.00;14.20
49343;PMS5003;35210;41.606;-87.602;2023-01-25T01:31:31;48.00;43.60;27.60
49343;PMS5003;35210;41.606;-87.602;2023-01-25T01:34:00;32.60;26.80;17.00
49343;PMS5003;35210;41.606;-87.602;2023-01-25T01:36:28;35.40;29.80;17.00
49343;PMS5003;35210;41.606;-87.602;2023-01-25T01:38:57;31.80;25.60;13.00
49343;PMS5003;35210;41.606;-87.602;2023-01-25T01:41:26;55.80;45.40;26.80
49343;PMS5003;35210;41.606;-87.602;2023-01-25T01:43:54;29.80;25.60;15.20
49343;PMS5003;35210;41.606;-87.602;2023-01-25T01:46:24;30.40;25.40;13.60
49343;PMS5003;35210;41.606;-87.602;2023-01-25T01:49:01;30.40;25.20;13.00
49343;PMS5003;35210;41.606;-87.602;2023-01-25T01:51:42;31.00;27.80;15.60
49343;PMS5003;35210;41.606;-87.602;2023-01-25T01:54:13;40.40;31.40;13.40
49343;PMS5003;35210;41.606;-87.602;2023-01-25T01:56:50;39.00;30.60;15.20
49343;PMS5003;35210;41.606;-87.602;2023-01-25T01:59:21;29.60;25.20;13.00
49343;PMS5003;35210;41.606;-87.602;2023-01-25T02:01:54;33.80;26.80;16.00
49343;PMS5003;35210;41.606;-87.602;2023-01-25T02:04:24;24.00;22.20;15.40
49343;PMS5003;35210;41.606;-87.602;2023-01-25T02:06:57;40.20;32.20;19.20
49343;PMS5003;35210;41.606;-87.602;2023-01-25T02:09:31;32.60;25.40;13.00
49343;PMS5003;35210;41.606;-87.602;2023-01-25T02:12:03;34.80;26.60;15.80
49343;PMS5003;35210;41.606;-87.602;2023-01-25T02:14:34;29.20;24.80;14.20
49343;PMS5003;35210;41.606;-87.602;2023-01-25T02:17:05;28.80;26.00;14.00
49343;PMS5003;35210;41.606;-87.602;2023-01-25T02:19:39;31.20;23.20;9.00
49343;PMS5003;35210;41.606;-87.602;2023-01-25T02:22:18;29.80;29.60;14.60
49343;PMS5003;35210;41.606;-87.602;2023-01-25T02:25:03;28.40;22.60;13.00
49343;PMS5003;35210;41.606;-87.602;2023-01-25T02:27:34;32.40;27.80;12.00
49343;PMS5003;35210;41.606;-87.602;2023-01-25T02:30:06;24.40;24.20;10.40
49343;PMS5003;35210;41.606;-87.602;2023-01-25T02:32:35;37.20;31.80;16.60
49343;PMS5003;35210;41.606;-87.602;2023-01-25T02:35:04;32.00;28.40;14.00
49343;PMS5003;35210;41.606;-87.602;2023-01-25T02:37:35;35.00;26.40;14.40
49343;PMS5003;35210;41.606;-87.602;2023-01-25T02:40:06;30.40;29.00;13.20
49343;PMS5003;35210;41.606;-87.602;2023-01-25T02:42:40;30.40;27.20;14.20
49343;PMS5003;35210;41.606;-87.602;2023-01-25T02:45:10;32.40;28.80;13.00
49343;PMS5003;35210;41.606;-87.602;2023-01-25T02:47:43;26.20;19.80;9.80
49343;PMS5003;35210;41.606;-87.602;2023-01-25T02:50:13;24.00;20.40;10.00
49343;PMS5003;35210;41.606;-87.602;2023-01-25T02:52:43;22.80;21.80;12.00
49343;PMS5003;35210;41.606;-87.602;2023-01-25T02:55:14;32.00;27.40;15.20
49343;PMS5003;35210;41.606;-87.602;2023-01-25T02:57:42;29.00;22.40;12.40
49343;PMS5003;35210;41.606;-87.602;2023-01-25T03:00:10;37.60;28.60;16.00
49343;PMS5003;35210;41.606;-87.602;2023-01-25T03:02:41;29.40;24.40;11.80
49343;PMS5003;35210;41.606;-87.602;2023-01-25T03:05:09;29.80;24.60;12.60
49343;PMS5003;35210;41.606;-87.602;2023-01-25T03:07:38;31.40;24.00;13.20
49343;PMS5003;35210;41.606;-87.602;2023-01-25T03:10:07;33.60;25.40;13.20
49343;PMS5003;35210;41.606;-87.602;2023-01-25T03:12:39;32.40;28.60;15.40
49343;PMS5003;35210;41.606;-87.602;2023-01-25T03:15:07;31.00;26.00;13.00
49343;PMS5003;35210;41.606;-87.602;2023-01-25T03:17:36;20.40;20.20;11.20
49343;PMS5003;35210;41.606;-87.602;2023-01-25T03:20:05;28.60;26.20;14.20
49343;PMS5003;35210;41.606;-87.602;2023-01-25T03:22:34;29.00;24.00;13.60
49343;PMS5003;35210;41.606;-87.602;2023-01-25T03:25:02;26.80;24.20;13.20
49343;PMS5003;35210;41.606;-87.602;2023-01-25T03:27:32;28.00;24.60;13.00
49343;PMS5003;35210;41.606;-87.602;2023-01-25T03:30:02;28.60;21.00;9.60
49343;PMS5003;35210;41.606;-87.602;2023-01-25T03:32:32;29.60;23.60;12.00
49343;PMS5003;35210;41.606;-87.602;2023-01-25T03:35:02;25.40;21.00;9.80
49343;PMS5003;35210;41.606;-87.602;2023-01-25T03:37:30;24.20;21.40;10.40
49343;PMS5003;35210;41.606;-87.602;2023-01-25T03:39:59;30.80;26.80;14.00
49343;PMS5003;35210;41.606;-87.602;2023-01-25T03:42:28;34.20;26.20;13.80
49343;PMS5003;35210;41.606;-87.602;2023-01-25T03:44:57;26.20;22.20;10.00
49343;PMS5003;35210;41.606;-87.602;2023-01-25T03:47:29;29.80;25.80;13.20
49343;PMS5003;35210;41.606;-87.602;2023-01-25T03:49:57;26.60;21.80;9.00
49343;PMS5003;35210;41.606;-87.602;2023-01-25T03:55:54;30.00;25.60;12.40
49343;PMS5003;35210;41.606;-87.602;2023-01-25T03:58:25;23.40;19.20;12.00
49343;PMS5003;35210;41.606;-87.602;2023-01-25T04:00:54;29.20;25.80;11.80
49343;PMS5003;35210;41.606;-87.602;2023-01-25T04:03:24;27.00;19.80;10.40
49343;PMS5003;35210;41.606;-87.602;2023-01-25T04:05:53;24.40;20.20;9.00
49343;PMS5003;35210;41.606;-87.602;2023-01-25T04:08:24;17.60;16.40;10.40
49343;PMS5003;35210;41.606;-87.602;2023-01-25T04:10:53;25.00;19.60;9.40
49343;PMS5003;35210;41.606;-87.602;2023-01-25T04:13:23;19.60;17.20;8.20
49343;PMS5003;35210;41.606;-87.602;2023-01-25T04:15:51;16.60;16.00;8.40
49343;PMS5003;35210;41.606;-87.602;2023-01-25T04:18:20;25.80;21.40;11.60
49343;PMS5003;35210;41.606;-87.602;2023-01-25T04:20:52;21.80;19.80;11.00
49343;PMS5003;35210;41.606;-87.602;2023-01-25T04:23:21;27.00;20.00;9.40
49343;PMS5003;35210;41.606;-87.602;2023-01-25T04:25:52;26.40;22.80;8.20
49343;PMS5003;35210;41.606;-87.602;2023-01-25T04:28:21;28.20;22.00;10.20
49343;PMS5003;35210;41.606;-87.602;2023-01-25T04:30:50;26.20;20.00;10.20
49343;PMS5003;35210;41.606;-87.602;2023-01-25T04:33:20;31.00;25.80;13.60
49343;PMS5003;35210;41.606;-87.602;2023-01-25T04:35:48;32.40;22.60;11.60
49343;PMS5003;35210;41.606;-87.602;2023-01-25T04:38:19;27.40;23.40;12.20
49343;PMS5003;35210;41.606;-87.602;2023-01-25T04:40:47;32.40;23.80;12.00
49343;PMS5003;35210;41.606;-87.602;2023-01-25T04:43:19;28.00;18.20;9.00
49343;PMS5003;35210;41.606;-87.602;2023-01-25T04:45:48;32.40;25.60;12.60
49343;PMS5003;35210;41.606;-87.602;2023-01-25T04:48:17;30.60;23.20;12.00
49343;PMS5003;35210;41.606;-87.602;2023-01-25T04:50:46;34.00;24.40;9.40
49343;PMS5003;35210;41.606;-87.602;2023-01-25T04:53:14;27.60;20.80;9.00
49343;PMS5003;35210;41.606;-87.602;2023-01-25T04:55:47;27.00;22.40;12.00
49343;PMS5003;35210;41.606;-87.602;2023-01-25T04:58:16;32.40;26.40;12.80
49343;PMS5003;35210;41.606;-87.602;2023-01-25T05:00:44;34.00;23.20;9.80
49343;PMS5003;35210;41.606;-87.602;2023-01-25T05:03:14;29.40;23.40;12.00
49343;PMS5003;35210;41.606;-87.602;2023-01-25T05:05:44;36.80;28.20;13.60
49343;PMS5003;35210;41.606;-87.602;2023-01-25T05:08:14;36.60;27.20;12.80
49343;PMS5003;35210;41.606;-87.602;2023-01-25T05:10:44;34.80;27.40;13.00
49343;PMS5003;35210;41.606;-87.602;2023-01-25T05:13:13;34.80;30.40;14.40
49343;PMS5003;35210;41.606;-87.602;2023-01-25T05:15:43;37.80;30.40;13.00
49343;PMS5003;35210;41.606;-87.602;2023-01-25T05:18:12;29.40;27.20;13.00
49343;PMS5003;35210;41.606;-87.602;2023-01-25T05:20:40;31.80;26.80;12.40
49343;PMS5003;35210;41.606;-87.602;2023-01-25T05:23:10;23.00;23.00;14.00
49343;PMS5003;35210;41.606;-87.602;2023-01-25T05:25:38;37.00;23.20;13.40
49343;PMS5003;35210;41.606;-87.602;2023-01-25T05:28:25;28.60;24.40;12.20
49343;PMS5003;35210;41.606;-87.602;2023-01-25T05:30:54;34.40;28.60;13.40
49343;PMS5003;35210;41.606;-87.602;2023-01-25T05:33:22;42.80;30.20;11.80
49343;PMS5003;35210;41.606;-87.602;2023-01-25T05:35:50;34.00;28.00;13.20
49343;PMS5003;35210;41.606;-87.602;2023-01-25T05:38:21;31.00;26.80;13.20
49343;PMS5003;35210;41.606;-87.602;2023-01-25T05:40:50;31.80;29.20;12.80
49343;PMS5003;35210;41.606;-87.602;2023-01-25T05:43:18;36.80;31.60;15.00
49343;PMS5003;35210;41.606;-87.602;2023-01-25T05:45:52;32.00;25.40;13.00
49343;PMS5003;35210;41.606;-87.602;2023-01-25T05:48:23;38.20;28.00;12.60
49343;PMS5003;35210;41.606;-87.602;2023-01-25T05:50:51;32.80;27.80;13.00
49343;PMS5003;35210;41.606;-87.602;2023-01-25T05:53:23;26.40;23.00;12.20
49343;PMS5003;35210;41.606;-87.602;2023-01-25T05:55:53;28.40;23.60;12.00
49343;PMS5003;35210;41.606;-87.602;2023-01-25T05:58:22;36.80;31.20;13.80
49343;PMS5003;35210;41.606;-87.602;2023-01-25T06:00:50;30.20;25.40;14.20
49343;PMS5003;35210;41.606;-87.602;2023-01-25T06:03:20;43.60;29.40;14.20
49343;PMS5003;35210;41.606;-87.602;2023-01-25T06:05:51;36.80;25.20;13.60
49343;PMS5003;35210;41.606;-87.602;2023-01-25T06:08:21;34.80;28.20;13.20
49343;PMS5003;35210;41.606;-87.602;2023-01-25T06:10:49;36.80;25.60;9.60
49343;PMS5003;35210;41.606;-87.602;2023-01-25T06:13:18;30.00;27.80;12.40
49343;PMS5003;35210;41.606;-87.602;2023-01-25T06:15:52;28.80;26.00;11.20
49343;PMS5003;35210;41.606;-87.602;2023-01-25T06:18:20;36.80;28.00;12.00
49343;PMS5003;35210;41.606;-87.602;2023-01-25T06:20:51;40.20;33.20;15.00
49343;PMS5003;35210;41.606;-87.602;2023-01-25T06:23:23;34.80;23.40;13.00
49343;PMS5003;35210;41.606;-87.602;2023-01-25T06:25:51;24.40;21.00;9.40
49343;PMS5003;35210;41.606;-87.602;2023-01-25T06:28:24;34.80;30.40;16.00
49343;PMS5003;35210;41.606;-87.602;2023-01-25T06:30:53;33.60;29.00;13.00
49343;PMS5003;35210;41.606;-87.602;2023-01-25T06:33:21;38.60;27.20;15.20
49343;PMS5003;35210;41.606;-87.602;2023-01-25T06:35:50;38.60;32.00;13.20
49343;PMS5003;35210;41.606;-87.602;2023-01-25T06:38:18;36.80;33.00;14.00
49343;PMS5003;35210;41.606;-87.602;2023-01-25T06:40:46;48.60;30.60;14.80
49343;PMS5003;35210;41.606;-87.602;2023-01-25T06:43:14;33.20;28.80;15.60
49343;PMS5003;35210;41.606;-87.602;2023-01-25T06:45:42;37.60;27.40;15.60
49343;PMS5003;35210;41.606;-87.602;2023-01-25T06:48:13;34.20;29.80;13.40
49343;PMS5003;35210;41.606;-87.602;2023-01-25T06:50:41;35.80;21.80;9.60
49343;PMS5003;35210;41.606;-87.602;2023-01-25T06:53:10;34.00;27.40;13.80
49343;PMS5003;35210;41.606;-87.602;2023-01-25T06:55:39;40.40;28.80;12.60
49343;PMS5003;35210;41.606;-87.602;2023-01-25T06:58:08;39.00;28.40;14.60
49343;PMS5003;35210;41.606;-87.602;2023-01-25T07:00:37;32.40;30.00;12.20
49343;PMS5003;35210;41.606;-87.602;2023-01-25T07:03:05;37.20;28.00;14.00
49343;PMS5003;35210;41.606;-87.602;2023-01-25T07:05:35;30.20;27.20;14.40
49343;PMS5003;35210;41.606;-87.602;2023-01-25T07:08:03;38.20;31.00;16.40
49343;PMS5003;35210;41.606;-87.602;2023-01-25T07:10:31;34.00;26.60;14.00
49343;PMS5003;35210;41.606;-87.602;2023-01-25T07:12:59;38.60;30.60;13.60
49343;PMS5003;35210;41.606;-87.602;2023-01-25T07:15:28;30.60;21.00;9.80
49343;PMS5003;35210;41.606;-87.602;2023-01-25T07:17:56;38.80;29.00;12.20
49343;PMS5003;35210;41.606;-87.602;2023-01-25T07:20:24;39.60;26.60;12.40
49343;PMS5003;35210;41.606;-87.602;2023-01-25T07:22:54;40.60;31.00;14.00
49343;PMS5003;35210;41.606;-87.602;2023-01-25T07:25:22;32.40;27.60;14.20
49343;PMS5003;35210;41.606;-87.602;2023-01-25T07:27:53;37.60;32.80;15.00
49343;PMS5003;35210;41.606;-87.602;2023-01-25T07:30:21;27.20;24.20;13.80
49343;PMS5003;35210;41.606;-87.602;2023-01-25T07:32:50;37.60;29.20;13.80
49343;PMS5003;35210;41.606;-87.602;2023-01-25T07:35:18;37.00;27.60;15.00
49343;PMS5003;35210;41.606;-87.602;2023-01-25T07:37:48;37.20;33.00;13.40
49343;PMS5003;35210;41.606;-87.602;2023-01-25T07:40:18;32.60;23.40;9.60
49343;PMS5003;35210;41.606;-87.602;2023-01-25T07:42:49;30.80;22.00;13.00
49343;PMS5003;35210;41.606;-87.602;2023-01-25T07:45:17;35.40;19.40;13.00
49343;PMS5003;35210;41.606;-87.602;2023-01-25T07:47:46;31.60;27.60;13.00
49343;PMS5003;35210;41.606;-87.602;2023-01-25T07:50:14;45.60;29.00;14.00
49343;PMS5003;35210;41.606;-87.602;2023-01-25T07:52:43;43.80;28.80;13.60
49343;PMS5003;35210;41.606;-87.602;2023-01-25T07:55:11;35.00;28.00;15.00
49343;PMS5003;35210;41.606;-87.602;2023-01-25T07:57:42;26.40;22.80;10.80
49343;PMS5003;35210;41.606;-87.602;2023-01-25T08:00:10;39.20;28.00;14.40
49343;PMS5003;35210;41.606;-87.602;2023-01-25T08:02:40;28.60;25.40;15.20
49343;PMS5003;35210;41.606;-87.602;2023-01-25T08:05:08;30.60;23.40;13.00
49343;PMS5003;35210;41.606;-87.602;2023-01-25T08:07:37;26.20;24.00;10.40
49343;PMS5003;35210;41.606;-87.602;2023-01-25T08:10:06;38.00;28.20;18.00
49343;PMS5003;35210;41.606;-87.602;2023-01-25T08:12:35;34.00;30.00;18.20
49343;PMS5003;35210;41.606;-87.602;2023-01-25T08:15:05;35.40;27.00;14.00
49343;PMS5003;35210;41.606;-87.602;2023-01-25T08:17:35;41.40;33.00;16.80
49343;PMS5003;35210;41.606;-87.602;2023-01-25T08:20:03;43.60;33.00;17.60
49343;PMS5003;35210;41.606;-87.602;2023-01-25T08:22:33;38.40;32.40;14.80
49343;PMS5003;35210;41.606;-87.602;2023-01-25T08:25:02;34.20;29.80;14.60
49343;PMS5003;35210;41.606;-87.602;2023-01-25T08:27:32;41.40;32.40;14.20
49343;PMS5003;35210;41.606;-87.602;2023-01-25T08:30:00;37.20;31.40;14.20
49343;PMS5003;35210;41.606;-87.602;2023-01-25T08:32:30;43.20;33.20;14.20
49343;PMS5003;35210;41.606;-87.602;2023-01-25T08:35:01;32.40;29.20;17.20
49343;PMS5003;35210;41.606;-87.602;2023-01-25T08:37:30;36.80;31.80;14.20
49343;PMS5003;35210;41.606;-87.602;2023-01-25T08:39:58;36.20;31.20;16.40
49343;PMS5003;35210;41.606;-87.602;2023-01-25T08:42:26;36.20;29.60;13.00
49343;PMS5003;35210;41.606;-87.602;2023-01-25T08:44:55;38.40;31.00;16.00
49343;PMS5003;35210;41.606;-87.602;2023-01-25T08:47:24;34.80;23.80;12.20
49343;PMS5003;35210;41.606;-87.602;2023-01-25T08:49:54;38.60;32.40;16.00
49343;PMS5003;35210;41.606;-87.602;2023-01-25T08:52:22;35.00;32.40;18.00
49343;PMS5003;35210;41.606;-87.602;2023-01-25T08:54:52;35.80;28.40;13.80
49343;PMS5003;35210;41.606;-87.602;2023-01-25T08:57:21;35.20;30.40;14.60
49343;PMS5003;35210;41.606;-87.602;2023-01-25T08:59:49;37.80;29.00;18.40
49343;PMS5003;35210;41.606;-87.602;2023-01-25T09:02:19;34.60;33.20;17.00
49343;PMS5003;35210;41.606;-87.602;2023-01-25T09:04:49;38.60;34.40;17.00
49343;PMS5003;35210;41.606;-87.602;2023-01-25T09:07:19;39.60;34.60;17.40
49343;PMS5003;35210;41.606;-87.602;2023-01-25T09:09:48;39.60;30.40;16.80
49343;PMS5003;35210;41.606;-87.602;2023-01-25T09:12:16;37.20;33.00;16.00
49343;PMS5003;35210;41.606;-87.602;2023-01-25T09:14:45;37.20;31.60;17.60
49343;PMS5003;35210;41.606;-87.602;2023-01-25T09:17:13;33.00;27.80;15.00
49343;PMS5003;35210;41.606;-87.602;2023-01-25T09:19:42;43.20;30.60;14.00
49343;PMS5003;35210;41.606;-87.602;2023-01-25T09:22:10;31.80;28.40;12.60
49343;PMS5003;35210;41.606;-87.602;2023-01-25T09:24:40;34.80;29.60;13.80
49343;PMS5003;35210;41.606;-87.602;2023-01-25T09:27:09;31.40;26.00;13.40
49343;PMS5003;35210;41.606;-87.602;2023-01-25T09:29:38;37.00;30.60;17.40
49343;PMS5003;35210;41.606;-87.602;2023-01-25T09:32:06;35.20;31.40;14.80
49343;PMS5003;35210;41.606;-87.602;2023-01-25T09:34:35;32.60;27.60;15.00
49343;PMS5003;35210;41.606;-87.602;2023-01-25T09:37:03;54.80;37.40;19.60
49343;PMS5003;35210;41.606;-87.602;2023-01-25T09:39:31;37.00;28.80;17.00
49343;PMS5003;35210;41.606;-87.602;2023-01-25T09:42:10;43.40;33.60;17.20
49343;PMS5003;35210;41.606;-87.602;2023-01-25T09:45:04;35.60;30.80;17.20
49343;PMS5003;35210;41.606;-87.602;2023-01-25T09:47:41;45.80;33.40;19.20
49343;PMS5003;35210;41.606;-87.602;2023-01-25T09:53:09;32.00;29.80;17.80
49343;PMS5003;35210;41.606;-87.602;2023-01-25T09:55:58;34.40;30.80;13.00
49343;PMS5003;35210;41.606;-87.602;2023-01-25T09:58:33;43.20;37.40;17.60
49343;PMS5003;35210;41.606;-87.602;2023-01-25T10:01:15;39.20;33.60;17.40
49343;PMS5003;35210;41.606;-87.602;2023-01-25T10:03:52;40.00;32.60;17.00
49343;PMS5003;35210;41.606;-87.602;2023-01-25T10:06:28;41.00;31.00;16.00
49343;PMS5003;35210;41.606;-87.602;2023-01-25T10:09:05;38.00;33.60;17.60
49343;PMS5003;35210;41.606;-87.602;2023-01-25T10:11:43;37.00;30.80;16.60
49343;PMS5003;35210;41.606;-87.602;2023-01-25T10:14:14;46.60;35.40;18.00
49343;PMS5003;35210;41.606;-87.602;2023-01-25T10:16:50;43.00;38.40;17.80
49343;PMS5003;35210;41.606;-87.602;2023-01-25T10:19:28;35.40;28.20;19.20
49343;PMS5003;35210;41.606;-87.602;2023-01-25T10:22:07;36.80;28.80;14.20
49343;PMS5003;35210;41.606;-87.602;2023-01-25T10:24:53;38.40;34.80;16.40
49343;PMS5003;35210;41.606;-87.602;2023-01-25T10:27:32;46.80;35.00;17.20
49343;PMS5003;35210;41.606;-87.602;2023-01-25T10:30:21;36.40;27.20;13.00
49343;PMS5003;35210;41.606;-87.602;2023-01-25T10:32:53;40.40;32.60;19.20
49343;PMS5003;35210;41.606;-87.602;2023-01-25T10:35:26;44.40;38.80;20.00
49343;PMS5003;35210;41.606;-87.602;2023-01-25T10:37:58;41.20;31.00;17.80
49343;PMS5003;35210;41.606;-87.602;2023-01-25T10:40:37;36.20;32.00;14.80
49343;PMS5003;35210;41.606;-87.602;2023-01-25T10:43:13;47.20;37.40;19.40
49343;PMS5003;35210;41.606;-87.602;2023-01-25T10:45:46;40.00;30.80;16.60
49343;PMS5003;35210;41.606;-87.602;2023-01-25T10:48:16;46.40;34.00;17.40
49343;PMS5003;35210;41.606;-87.602;2023-01-25T10:50:50;37.80;34.20;17.40
49343;PMS5003;35210;41.606;-87.602;2023-01-25T10:53:30;39.00;33.00;17.40
49343;PMS5003;35210;41.606;-87.602;2023-01-25T10:56:02;41.20;31.20;17.40
49343;PMS5003;35210;41.606;-87.602;2023-01-25T10:58:45;42.20;37.00;19.40
49343;PMS5003;35210;41.606;-87.602;2023-01-25T11:01:28;45.20;36.00;18.20
49343;PMS5003;35210;41.606;-87.602;2023-01-25T11:03:59;42.60;38.40;19.20
49343;PMS5003;35210;41.606;-87.602;2023-01-25T11:06:29;41.00;34.00;18.80
49343;PMS5003;35210;41.606;-87.602;2023-01-25T11:08:59;37.40;31.20;15.00
49343;PMS5003;35210;41.606;-87.602;2023-01-25T11:11:30;38.00;34.40;16.00
49343;PMS5003;35210;41.606;-87.602;2023-01-25T11:14:02;42.80;36.40;20.00
49343;PMS5003;35210;41.606;-87.602;2023-01-25T11:16:45;49.00;34.40;16.00
49343;PMS5003;35210;41.606;-87.602;2023-01-25T11:19:27;46.60;36.80;18.80
49343;PMS5003;35210;41.606;-87.602;2023-01-25T11:21:59;47.60;39.80;18.40
49343;PMS5003;35210;41.606;-87.602;2023-01-25T11:24:29;43.00;36.40;17.00
49343;PMS5003;35210;41.606;-87.602;2023-01-25T11:27:16;50.40;39.00;19.40
49343;PMS5003;35210;41.606;-87.602;2023-01-25T11:29:47;47.00;39.40;17.80
49343;PMS5003;35210;41.606;-87.602;2023-01-25T11:32:36;36.00;31.40;16.40
49343;PMS5003;35210;41.606;-87.602;2023-01-25T11:35:10;50.20;37.00;16.60
49343;PMS5003;35210;41.606;-87.602;2023-01-25T11:37:43;47.00;40.20;21.00
49343;PMS5003;35210;41.606;-87.602;2023-01-25T11:40:28;39.40;32.40;19.80
49343;PMS5003;35210;41.606;-87.602;2023-01-25T11:43:05;54.00;41.20;21.00
49343;PMS5003;35210;41.606;-87.602;2023-01-25T11:45:51;41.60;35.00;21.00
49343;PMS5003;35210;41.606;-87.602;2023-01-25T11:51:25;62.00;44.60;23.00
49343;PMS5003;35210;41.606;-87.602;2023-01-25T11:56:57;56.80;43.40;22.60
49343;PMS5003;35210;41.606;-87.602;2023-01-25T11:59:37;51.80;43.40;22.20
49343;PMS5003;35210;41.606;-87.602;2023-01-25T12:02:33;53.80;43.00;19.80
49343;PMS5003;35210;41.606;-87.602;2023-01-25T12:05:34;33.80;23.00;15.60
49343;PMS5003;35210;41.606;-87.602;2023-01-25T12:08:15;43.60;41.00;17.20
49343;PMS5003;35210;41.606;-87.602;2023-01-25T12:10:57;49.80;43.20;25.20
49343;PMS5003;35210;41.606;-87.602;2023-01-25T12:13:38;48.40;38.20;25.60
49343;PMS5003;35210;41.606;-87.602;2023-01-25T12:16:25;56.80;43.80;24.00
49343;PMS5003;35210;41.606;-87.602;2023-01-25T12:19:10;57.40;44.60;24.20
49343;PMS5003;35210;41.606;-87.602;2023-01-25T12:24:58;53.80;44.80;26.20
49343;PMS5003;35210;41.606;-87.602;2023-01-25T12:27:40;53.40;41.00;24.80
49343;PMS5003;35210;41.606;-87.602;2023-01-25T12:30:21;64.40;46.60;26.00
49343;PMS5003;35210;41.606;-87.602;2023-01-25T12:32:54;47.60;40.00;24.20
49343;PMS5003;35210;41.606;-87.602;2023-01-25T12:35:30;52.20;42.60;26.80
49343;PMS5003;35210;41.606;-87.602;2023-01-25T12:38:07;48.60;42.60;23.20
49343;PMS5003;35210;41.606;-87.602;2023-01-25T12:40:45;54.40;44.40;24.40
49343;PMS5003;35210;41.606;-87.602;2023-01-25T12:43:20;47.40;38.00;23.80
49343;PMS5003;35210;41.606;-87.602;2023-01-25T12:45:53;43.20;30.80;12.60
49343;PMS5003;35210;41.606;-87.602;2023-01-25T12:48:24;35.40;28.00;16.60
49343;PMS5003;35210;41.606;-87.602;2023-01-25T12:50:56;43.80;35.40;17.80
49343;PMS5003;35210;41.606;-87.602;2023-01-25T12:53:28;40.20;37.80;18.00
49343;PMS5003;35210;41.606;-87.602;2023-01-25T12:56:03;41.40;30.40;19.00
49343;PMS5003;35210;41.606;-87.602;2023-01-25T12:58:37;34.00;26.20;13.60
49343;PMS5003;35210;41.606;-87.602;2023-01-25T13:01:15;22.20;22.20;14.40
49343;PMS5003;35210;41.606;-87.602;2023-01-25T13:03:57;35.60;26.20;13.60
49343;PMS5003;35210;41.606;-87.602;2023-01-25T13:06:38;47.00;38.00;18.40
49343;PMS5003;35210;41.606;-87.602;2023-01-25T13:09:15;42.60;31.80;17.40
49343;PMS5003;35210;41.606;-87.602;2023-01-25T13:11:53;42.20;33.60;17.60
49343;PMS5003;35210;41.606;-87.602;2023-01-25T13:14:25;41.00;28.80;9.60
49343;PMS5003;35210;41.606;-87.602;2023-01-25T13:17:09;55.00;38.60;19.00
49343;PMS5003;35210;41.606;-87.602;2023-01-25T13:19:45;38.60;32.00;19.60
49343;PMS5003;35210;41.606;-87.602;2023-01-25T13:22:15;42.00;38.80;19.20
49343;PMS5003;35210;41.606;-87.602;2023-01-25T13:25:24;45.20;35.00;15.40
49343;PMS5003;35210;41.606;-87.602;2023-01-25T13:30:51;36.00;27.40;16.00
49343;PMS5003;35210;41.606;-87.602;2023-01-25T13:33:30;50.20;40.00;20.20
49343;PMS5003;35210;41.606;-87.602;2023-01-25T13:42:18;47.80;39.20;18.20
49343;PMS5003;35210;41.606;-87.602;2023-01-25T13:44:48;52.00;40.00;19.80
49343;PMS5003;35210;41.606;-87.602;2023-01-25T13:47:19;51.00;41.80;20.40
49343;PMS5003;35210;41.606;-87.602;2023-01-25T13:49:50;51.60;39.40;19.80
49343;PMS5003;35210;41.606;-87.602;2023-01-25T13:52:24;52.00;38.60;24.80
49343;PMS5003;35210;41.606;-87.602;2023-01-25T13:54:54;47.20;39.40;17.20
49343;PMS5003;35210;41.606;-87.602;2023-01-25T13:57:26;53.40;38.60;23.00
49343;PMS5003;35210;41.606;-87.602;2023-01-25T13:59:58;54.20;41.60;23.60
49343;PMS5003;35210;41.606;-87.602;2023-01-25T14:02:28;53.60;42.40;22.80
49343;PMS5003;35210;41.606;-87.602;2023-01-25T14:04:57;41.00;30.80;16.20
49343;PMS5003;35210;41.606;-87.602;2023-01-25T14:07:29;57.60;44.20;22.60
49343;PMS5003;35210;41.606;-87.602;2023-01-25T14:09:59;62.60;45.00;23.00
49343;PMS5003;35210;41.606;-87.602;2023-01-25T14:12:35;60.40;44.80;23.20
49343;PMS5003;35210;41.606;-87.602;2023-01-25T14:15:18;58.40;47.20;26.40